sensor_id;sensor_type;location;lat;lon;timestamp;P1;durP1;ratioP1;P2;durP2;ratioP2
29384;SDS011;16367;48.736;9.218;2022-08-20T00:01:22;3.30;;;3.00;;
29384;SDS011;16367;48.736;9.218;2022-08-20T00:03:26;3.43;;;2.90;;
29384;SDS011;16367;48.736;9.218;2022-08-20T00:05:32;4.90;;;2.70;;
29384;SDS011;16367;48.736;9.218;2022-08-20T00:07:37;2.70;;;2.50;;
29384;SDS011;16367;48.736;9.218;2022-08-20T00:09:41;3.07;;;2.77;;
29384;SDS011;16367;48.736;9.218;2022-08-20T00:11:44;3.60;;;3.27;;
29384;SDS011;16367;48.736;9.218;2022-08-20T00:13:48;2.77;;;2.57;;
29384;SDS011;16367;48.736;9.218;2022-08-20T00:15:52;2.60;;;2.40;;
29384;SDS011;16367;48.736;9.218;2022-08-20T00:17:55;2.50;;;2.30;;
29384;SDS011;16367;48.736;9.218;2022-08-20T00:19:59;3.00;;;2.80;;
29384;SDS011;16367;48.736;9.218;2022-08-20T00:22:02;2.60;;;2.40;;
29384;SDS011;16367;48.736;9.218;2022-08-20T00:24:05;2.83;;;2.63;;
29384;SDS011;16367;48.736;9.218;2022-08-20T00:26:09;3.00;;;2.47;;
29384;SDS011;16367;48.736;9.218;2022-08-20T00:28:12;2.70;;;2.50;;
29384;SDS011;16367;48.736;9.218;2022-08-20T00:30:15;3.23;;;2.50;;
29384;SDS011;16367;48.736;9.218;2022-08-20T00:32:18;2.93;;;2.50;;
29384;SDS011;16367;48.736;9.218;2022-08-20T00:34:21;3.10;;;2.80;;
29384;SDS011;16367;48.736;9.218;2022-08-20T00:36:23;3.40;;;2.80;;
29384;SDS011;16367;48.736;9.218;2022-08-20T00:38:33;2.80;;;2.60;;
29384;SDS011;16367;48.736;9.218;2022-08-20T00:40:37;3.27;;;2.60;;
29384;SDS011;16367;48.736;9.218;2022-08-20T00:42:43;2.67;;;2.13;;
29384;SDS011;16367;48.736;9.218;2022-08-20T00:44:49;2.60;;;2.40;;
29384;SDS011;16367;48.736;9.218;2022-08-20T00:46:52;2.80;;;2.40;;
29384;SDS011;16367;48.736;9.218;2022-08-20T00:48:55;2.80;;;2.60;;
29384;SDS011;16367;48.736;9.218;2022-08-20T00:51:00;3.23;;;2.80;;
29384;SDS011;16367;48.736;9.218;2022-08-20T00:53:05;3.50;;;2.43;;
29384;SDS011;16367;48.736;9.218;2022-08-20T00:55:09;2.50;;;2.30;;
29384;SDS011;16367;48.736;9.218;2022-08-20T00:57:16;2.70;;;2.50;;
29384;SDS011;16367;48.736;9.218;2022-08-20T00:59:27;2.57;;;2.37;;
29384;SDS011;16367;48.736;9.218;2022-08-20T01:01:32;2.50;;;2.30;;
29384;SDS011;16367;48.736;9.218;2022-08-20T01:03:55;2.77;;;2.30;;
29384;SDS011;16367;48.736;9.218;2022-08-20T01:05:58;3.50;;;2.60;;
29384;SDS011;16367;48.736;9.218;2022-08-20T01:08:01;3.10;;;2.40;;
29384;SDS011;16367;48.736;9.218;2022-08-20T01:10:07;3.20;;;2.90;;
29384;SDS011;16367;48.736;9.218;2022-08-20T01:12:19;2.83;;;2.63;;
29384;SDS011;16367;48.736;9.218;2022-08-20T01:14:23;3.20;;;2.90;;
29384;SDS011;16367;48.736;9.218;2022-08-20T01:16:33;2.93;;;2.63;;
29384;SDS011;16367;48.736;9.218;2022-08-20T01:18:40;2.63;;;2.43;;
29384;SDS011;16367;48.736;9.218;2022-08-20T01:20:45;2.50;;;2.30;;
29384;SDS011;16367;48.736;9.218;2022-08-20T01:22:53;2.70;;;2.50;;
29384;SDS011;16367;48.736;9.218;2022-08-20T01:25:28;3.83;;;3.07;;
29384;SDS011;16367;48.736;9.218;2022-08-20T01:27:35;2.50;;;2.30;;
29384;SDS011;16367;48.736;9.218;2022-08-20T01:29:43;4.43;;;2.50;;
29384;SDS011;16367;48.736;9.218;2022-08-20T01:31:47;2.87;;;2.67;;
29384;SDS011;16367;48.736;9.218;2022-08-20T01:33:50;2.57;;;2.37;;
29384;SDS011;16367;48.736;9.218;2022-08-20T01:35:54;2.50;;;2.30;;
29384;SDS011;16367;48.736;9.218;2022-08-20T01:37:56;2.60;;;2.40;;
29384;SDS011;16367;48.736;9.218;2022-08-20T01:39:59;2.70;;;2.50;;
29384;SDS011;16367;48.736;9.218;2022-08-20T01:42:07;2.47;;;2.27;;
29384;SDS011;16367;48.736;9.218;2022-08-20T01:44:17;3.97;;;2.50;;
29384;SDS011;16367;48.736;9.218;2022-08-20T01:46:20;2.60;;;2.40;;
29384;SDS011;16367;48.736;9.218;2022-08-20T01:48:23;3.13;;;2.83;;
29384;SDS011;16367;48.736;9.218;2022-08-20T01:50:28;2.90;;;2.70;;
29384;SDS011;16367;48.736;9.218;2022-08-20T01:52:35;2.83;;;2.57;;
29384;SDS011;16367;48.736;9.218;2022-08-20T01:54:44;3.03;;;2.67;;
29384;SDS011;16367;48.736;9.218;2022-08-20T01:56:51;2.83;;;2.63;;
29384;SDS011;16367;48.736;9.218;2022-08-20T01:58:57;2.83;;;2.63;;
29384;SDS011;16367;48.736;9.218;2022-08-20T02:01:03;2.80;;;2.60;;
29384;SDS011;16367;48.736;9.218;2022-08-20T02:03:06;3.10;;;2.90;;
29384;SDS011;16367;48.736;9.218;2022-08-20T02:05:09;2.50;;;2.30;;
29384;SDS011;16367;48.736;9.218;2022-08-20T02:07:13;2.90;;;2.70;;
29384;SDS011;16367;48.736;9.218;2022-08-20T02:09:18;2.67;;;2.47;;
29384;SDS011;16367;48.736;9.218;2022-08-20T02:11:21;2.57;;;2.37;;
29384;SDS011;16367;48.736;9.218;2022-08-20T02:13:24;2.70;;;2.50;;
29384;SDS011;16367;48.736;9.218;2022-08-20T02:15:27;2.83;;;2.63;;
29384;SDS011;16367;48.736;9.218;2022-08-20T02:17:37;2.80;;;2.60;;
29384;SDS011;16367;48.736;9.218;2022-08-20T02:19:40;4.50;;;3.10;;
29384;SDS011;16367;48.736;9.218;2022-08-20T02:21:48;2.80;;;2.60;;
29384;SDS011;16367;48.736;9.218;2022-08-20T02:23:54;2.70;;;2.50;;
29384;SDS011;16367;48.736;9.218;2022-08-20T02:25:57;3.20;;;2.90;;
29384;SDS011;16367;48.736;9.218;2022-08-20T02:28:01;2.73;;;2.53;;
29384;SDS011;16367;48.736;9.218;2022-08-20T02:30:07;2.70;;;2.50;;
29384;SDS011;16367;48.736;9.218;2022-08-20T02:32:28;5.30;;;2.80;;
29384;SDS011;16367;48.736;9.218;2022-08-20T02:34:36;2.63;;;2.43;;
29384;SDS011;16367;48.736;9.218;2022-08-20T02:36:39;2.80;;;2.60;;
29384;SDS011;16367;48.736;9.218;2022-08-20T02:38:44;2.80;;;2.60;;
29384;SDS011;16367;48.736;9.218;2022-08-20T02:40:47;2.97;;;2.70;;
29384;SDS011;16367;48.736;9.218;2022-08-20T02:42:50;2.67;;;2.47;;
29384;SDS011;16367;48.736;9.218;2022-08-20T02:44:53;2.70;;;2.50;;
29384;SDS011;16367;48.736;9.218;2022-08-20T02:46:58;2.93;;;2.73;;
29384;SDS011;16367;48.736;9.218;2022-08-20T02:49:01;2.83;;;2.63;;
29384;SDS011;16367;48.736;9.218;2022-08-20T02:51:06;2.77;;;2.57;;
29384;SDS011;16367;48.736;9.218;2022-08-20T02:53:09;3.00;;;2.63;;
29384;SDS011;16367;48.736;9.218;2022-08-20T02:55:13;4.23;;;2.43;;
29384;SDS011;16367;48.736;9.218;2022-08-20T02:57:27;2.80;;;2.60;;
29384;SDS011;16367;48.736;9.218;2022-08-20T02:59:30;2.60;;;2.40;;
29384;SDS011;16367;48.736;9.218;2022-08-20T03:01:33;2.97;;;2.77;;
29384;SDS011;16367;48.736;9.218;2022-08-20T03:03:36;3.20;;;3.00;;
29384;SDS011;16367;48.736;9.218;2022-08-20T03:05:40;5.20;;;3.17;;
29384;SDS011;16367;48.736;9.218;2022-08-20T03:07:46;4.10;;;3.63;;
29384;SDS011;16367;48.736;9.218;2022-08-20T03:09:53;2.80;;;2.60;;
29384;SDS011;16367;48.736;9.218;2022-08-20T03:11:56;3.43;;;3.03;;
29384;SDS011;16367;48.736;9.218;2022-08-20T03:13:59;2.93;;;2.73;;
29384;SDS011;16367;48.736;9.218;2022-08-20T03:16:02;4.00;;;2.80;;
29384;SDS011;16367;48.736;9.218;2022-08-20T03:18:05;3.47;;;3.17;;
29384;SDS011;16367;48.736;9.218;2022-08-20T03:20:09;3.40;;;3.10;;
29384;SDS011;16367;48.736;9.218;2022-08-20T03:22:12;3.80;;;3.13;;
29384;SDS011;16367;48.736;9.218;2022-08-20T03:24:16;3.00;;;2.80;;
29384;SDS011;16367;48.736;9.218;2022-08-20T03:26:19;3.13;;;2.93;;
29384;SDS011;16367;48.736;9.218;2022-08-20T03:28:21;3.97;;;3.57;;
29384;SDS011;16367;48.736;9.218;2022-08-20T03:30:25;4.90;;;3.43;;
29384;SDS011;16367;48.736;9.218;2022-08-20T03:32:29;3.50;;;3.20;;
29384;SDS011;16367;48.736;9.218;2022-08-20T03:34:32;3.83;;;3.53;;
29384;SDS011;16367;48.736;9.218;2022-08-20T03:36:36;4.03;;;3.63;;
29384;SDS011;16367;48.736;9.218;2022-08-20T03:38:38;3.30;;;3.00;;
29384;SDS011;16367;48.736;9.218;2022-08-20T03:40:42;3.80;;;3.37;;
29384;SDS011;16367;48.736;9.218;2022-08-20T03:42:46;3.40;;;3.10;;
29384;SDS011;16367;48.736;9.218;2022-08-20T03:44:48;3.30;;;3.00;;
29384;SDS011;16367;48.736;9.218;2022-08-20T03:46:59;3.43;;;3.13;;
29384;SDS011;16367;48.736;9.218;2022-08-20T03:49:07;3.60;;;3.30;;
29384;SDS011;16367;48.736;9.218;2022-08-20T03:51:10;3.30;;;3.00;;
29384;SDS011;16367;48.736;9.218;2022-08-20T03:53:13;3.70;;;3.40;;
29384;SDS011;16367;48.736;9.218;2022-08-20T03:55:16;3.60;;;3.30;;
29384;SDS011;16367;48.736;9.218;2022-08-20T03:57:20;3.80;;;3.50;;
29384;SDS011;16367;48.736;9.218;2022-08-20T03:59:23;3.17;;;2.97;;
29384;SDS011;16367;48.736;9.218;2022-08-20T04:01:25;5.57;;;3.80;;
29384;SDS011;16367;48.736;9.218;2022-08-20T04:03:46;3.60;;;3.30;;
29384;SDS011;16367;48.736;9.218;2022-08-20T04:05:55;3.90;;;3.60;;
29384;SDS011;16367;48.736;9.218;2022-08-20T04:07:59;3.80;;;3.50;;
29384;SDS011;16367;48.736;9.218;2022-08-20T04:10:04;4.00;;;3.70;;
29384;SDS011;16367;48.736;9.218;2022-08-20T04:12:10;3.83;;;3.53;;
29384;SDS011;16367;48.736;9.218;2022-08-20T04:14:15;4.10;;;3.70;;
29384;SDS011;16367;48.736;9.218;2022-08-20T04:16:20;4.60;;;4.20;;
29384;SDS011;16367;48.736;9.218;2022-08-20T04:18:23;3.93;;;3.47;;
29384;SDS011;16367;48.736;9.218;2022-08-20T04:20:26;3.90;;;3.50;;
29384;SDS011;16367;48.736;9.218;2022-08-20T04:22:29;4.00;;;3.70;;
29384;SDS011;16367;48.736;9.218;2022-08-20T04:24:32;5.30;;;4.13;;
29384;SDS011;16367;48.736;9.218;2022-08-20T04:26:35;4.20;;;3.90;;
29384;SDS011;16367;48.736;9.218;2022-08-20T04:28:38;4.60;;;4.20;;
29384;SDS011;16367;48.736;9.218;2022-08-20T04:30:42;4.40;;;4.00;;
29384;SDS011;16367;48.736;9.218;2022-08-20T04:32:52;4.70;;;4.30;;
29384;SDS011;16367;48.736;9.218;2022-08-20T04:34:55;4.93;;;4.17;;
29384;SDS011;16367;48.736;9.218;2022-08-20T04:36:58;5.10;;;4.70;;
29384;SDS011;16367;48.736;9.218;2022-08-20T04:39:01;5.30;;;4.80;;
29384;SDS011;16367;48.736;9.218;2022-08-20T04:41:04;4.80;;;4.40;;
29384;SDS011;16367;48.736;9.218;2022-08-20T04:43:06;5.30;;;4.80;;
29384;SDS011;16367;48.736;9.218;2022-08-20T04:45:12;4.90;;;4.50;;
29384;SDS011;16367;48.736;9.218;2022-08-20T04:47:19;5.60;;;5.20;;
29384;SDS011;16367;48.736;9.218;2022-08-20T04:49:36;5.60;;;5.10;;
29384;SDS011;16367;48.736;9.218;2022-08-20T04:51:39;5.80;;;5.30;;
29384;SDS011;16367;48.736;9.218;2022-08-20T04:53:42;5.50;;;5.10;;
29384;SDS011;16367;48.736;9.218;2022-08-20T04:55:53;5.67;;;5.20;;
29384;SDS011;16367;48.736;9.218;2022-08-20T04:58:01;5.60;;;5.20;;
29384;SDS011;16367;48.736;9.218;2022-08-20T05:00:06;5.63;;;5.17;;
29384;SDS011;16367;48.736;9.218;2022-08-20T05:02:11;5.90;;;5.40;;
29384;SDS011;16367;48.736;9.218;2022-08-20T05:04:20;6.00;;;5.40;;
29384;SDS011;16367;48.736;9.218;2022-08-20T05:06:24;5.80;;;5.40;;
29384;SDS011;16367;48.736;9.218;2022-08-20T05:08:30;5.80;;;5.40;;
29384;SDS011;16367;48.736;9.218;2022-08-20T05:10:34;5.50;;;5.10;;
29384;SDS011;16367;48.736;9.218;2022-08-20T05:12:39;6.03;;;5.10;;
29384;SDS011;16367;48.736;9.218;2022-08-20T05:14:57;5.23;;;4.83;;
29384;SDS011;16367;48.736;9.218;2022-08-20T05:17:01;5.27;;;4.77;;
29384;SDS011;16367;48.736;9.218;2022-08-20T05:19:05;5.70;;;5.30;;
29384;SDS011;16367;48.736;9.218;2022-08-20T05:21:11;5.63;;;5.20;;
29384;SDS011;16367;48.736;9.218;2022-08-20T05:23:16;5.60;;;5.20;;
29384;SDS011;16367;48.736;9.218;2022-08-20T05:25:20;5.33;;;4.93;;
29384;SDS011;16367;48.736;9.218;2022-08-20T05:27:24;6.27;;;5.67;;
29384;SDS011;16367;48.736;9.218;2022-08-20T05:29:27;5.53;;;5.13;;
29384;SDS011;16367;48.736;9.218;2022-08-20T05:31:30;6.03;;;5.53;;
29384;SDS011;16367;48.736;9.218;2022-08-20T05:33:34;5.87;;;5.37;;
29384;SDS011;16367;48.736;9.218;2022-08-20T05:35:38;5.63;;;5.23;;
29384;SDS011;16367;48.736;9.218;2022-08-20T05:37:43;5.50;;;5.00;;
29384;SDS011;16367;48.736;9.218;2022-08-20T05:39:46;6.03;;;5.53;;
29384;SDS011;16367;48.736;9.218;2022-08-20T05:41:48;5.63;;;5.23;;
29384;SDS011;16367;48.736;9.218;2022-08-20T05:43:51;6.03;;;5.53;;
29384;SDS011;16367;48.736;9.218;2022-08-20T05:45:54;6.10;;;5.60;;
29384;SDS011;16367;48.736;9.218;2022-08-20T05:47:58;6.17;;;5.67;;
29384;SDS011;16367;48.736;9.218;2022-08-20T05:50:06;7.30;;;6.73;;
29384;SDS011;16367;48.736;9.218;2022-08-20T05:52:20;6.40;;;5.80;;
29384;SDS011;16367;48.736;9.218;2022-08-20T05:54:24;6.60;;;6.00;;
29384;SDS011;16367;48.736;9.218;2022-08-20T05:56:27;6.60;;;6.10;;
29384;SDS011;16367;48.736;9.218;2022-08-20T05:58:31;6.90;;;6.30;;
29384;SDS011;16367;48.736;9.218;2022-08-20T06:00:34;6.50;;;6.00;;
29384;SDS011;16367;48.736;9.218;2022-08-20T06:02:37;7.70;;;7.10;;
29384;SDS011;16367;48.736;9.218;2022-08-20T06:04:58;6.73;;;6.13;;
29384;SDS011;16367;48.736;9.218;2022-08-20T06:07:02;6.60;;;6.00;;
29384;SDS011;16367;48.736;9.218;2022-08-20T06:09:07;6.77;;;6.27;;
29384;SDS011;16367;48.736;9.218;2022-08-20T06:11:11;6.90;;;6.40;;
29384;SDS011;16367;48.736;9.218;2022-08-20T06:13:14;8.73;;;6.97;;
29384;SDS011;16367;48.736;9.218;2022-08-20T06:15:16;7.30;;;6.70;;
29384;SDS011;16367;48.736;9.218;2022-08-20T06:17:20;6.67;;;6.07;;
29384;SDS011;16367;48.736;9.218;2022-08-20T06:19:22;7.17;;;6.57;;
29384;SDS011;16367;48.736;9.218;2022-08-20T06:21:26;6.30;;;5.80;;
29384;SDS011;16367;48.736;9.218;2022-08-20T06:23:29;6.87;;;6.27;;
29384;SDS011;16367;48.736;9.218;2022-08-20T06:25:51;6.80;;;6.30;;
29384;SDS011;16367;48.736;9.218;2022-08-20T06:27:56;9.93;;;9.07;;
29384;SDS011;16367;48.736;9.218;2022-08-20T06:29:58;6.10;;;5.60;;
29384;SDS011;16367;48.736;9.218;2022-08-20T06:32:01;6.03;;;5.53;;
29384;SDS011;16367;48.736;9.218;2022-08-20T06:34:04;6.17;;;5.67;;
29384;SDS011;16367;48.736;9.218;2022-08-20T06:36:08;6.60;;;6.03;;
29384;SDS011;16367;48.736;9.218;2022-08-20T06:38:11;6.40;;;5.90;;
29384;SDS011;16367;48.736;9.218;2022-08-20T06:40:15;6.57;;;5.90;;
29384;SDS011;16367;48.736;9.218;2022-08-20T06:42:20;6.00;;;5.50;;
29384;SDS011;16367;48.736;9.218;2022-08-20T06:44:24;6.60;;;6.10;;
29384;SDS011;16367;48.736;9.218;2022-08-20T06:46:28;6.03;;;5.53;;
29384;SDS011;16367;48.736;9.218;2022-08-20T06:48:32;6.20;;;5.70;;
29384;SDS011;16367;48.736;9.218;2022-08-20T06:50:37;6.33;;;5.83;;
29384;SDS011;16367;48.736;9.218;2022-08-20T06:52:48;6.80;;;6.30;;
29384;SDS011;16367;48.736;9.218;2022-08-20T06:54:53;5.73;;;5.23;;
29384;SDS011;16367;48.736;9.218;2022-08-20T06:56:56;6.40;;;5.90;;
29384;SDS011;16367;48.736;9.218;2022-08-20T06:58:58;5.83;;;5.33;;
29384;SDS011;16367;48.736;9.218;2022-08-20T07:01:02;6.73;;;6.13;;
29384;SDS011;16367;48.736;9.218;2022-08-20T07:03:10;7.57;;;5.53;;
29384;SDS011;16367;48.736;9.218;2022-08-20T07:05:14;6.80;;;6.10;;
29384;SDS011;16367;48.736;9.218;2022-08-20T07:07:17;5.83;;;5.43;;
29384;SDS011;16367;48.736;9.218;2022-08-20T07:09:20;6.43;;;5.83;;
29384;SDS011;16367;48.736;9.218;2022-08-20T07:11:23;5.93;;;5.50;;
29384;SDS011;16367;48.736;9.218;2022-08-20T07:13:29;6.73;;;6.17;;
29384;SDS011;16367;48.736;9.218;2022-08-20T07:15:32;6.13;;;5.70;;
29384;SDS011;16367;48.736;9.218;2022-08-20T07:17:36;5.90;;;5.50;;
29384;SDS011;16367;48.736;9.218;2022-08-20T07:19:40;6.90;;;6.30;;
29384;SDS011;16367;48.736;9.218;2022-08-20T07:21:43;5.93;;;5.20;;
29384;SDS011;16367;48.736;9.218;2022-08-20T07:23:47;5.90;;;5.40;;
29384;SDS011;16367;48.736;9.218;2022-08-20T07:25:50;6.50;;;6.00;;
29384;SDS011;16367;48.736;9.218;2022-08-20T07:27:57;8.40;;;7.70;;
29384;SDS011;16367;48.736;9.218;2022-08-20T07:30:03;5.70;;;5.30;;
29384;SDS011;16367;48.736;9.218;2022-08-20T07:32:24;5.40;;;5.00;;
29384;SDS011;16367;48.736;9.218;2022-08-20T07:34:40;5.80;;;5.20;;
29384;SDS011;16367;48.736;9.218;2022-08-20T07:36:45;8.00;;;5.10;;
29384;SDS011;16367;48.736;9.218;2022-08-20T07:38:48;5.93;;;5.43;;
29384;SDS011;16367;48.736;9.218;2022-08-20T07:40:53;5.70;;;5.30;;
29384;SDS011;16367;48.736;9.218;2022-08-20T07:42:57;5.67;;;5.20;;
29384;SDS011;16367;48.736;9.218;2022-08-20T07:45:03;6.30;;;5.70;;
29384;SDS011;16367;48.736;9.218;2022-08-20T07:47:06;5.90;;;5.40;;
29384;SDS011;16367;48.736;9.218;2022-08-20T07:49:09;5.50;;;5.10;;
29384;SDS011;16367;48.736;9.218;2022-08-20T07:51:13;6.40;;;5.83;;
29384;SDS011;16367;48.736;9.218;2022-08-20T07:53:17;5.27;;;4.77;;
29384;SDS011;16367;48.736;9.218;2022-08-20T07:55:20;5.00;;;4.60;;
29384;SDS011;16367;48.736;9.218;2022-08-20T07:57:23;5.73;;;5.27;;
29384;SDS011;16367;48.736;9.218;2022-08-20T07:59:26;5.73;;;5.30;;
29384;SDS011;16367;48.736;9.218;2022-08-20T08:01:29;5.33;;;4.93;;
29384;SDS011;16367;48.736;9.218;2022-08-20T08:03:33;5.73;;;5.23;;
29384;SDS011;16367;48.736;9.218;2022-08-20T08:05:50;5.10;;;4.70;;
29384;SDS011;16367;48.736;9.218;2022-08-20T08:07:55;5.57;;;4.50;;
29384;SDS011;16367;48.736;9.218;2022-08-20T08:09:58;5.33;;;4.93;;
29384;SDS011;16367;48.736;9.218;2022-08-20T08:12:02;5.10;;;4.70;;
29384;SDS011;16367;48.736;9.218;2022-08-20T08:14:06;5.30;;;4.80;;
29384;SDS011;16367;48.736;9.218;2022-08-20T08:16:11;5.10;;;4.60;;
29384;SDS011;16367;48.736;9.218;2022-08-20T08:18:15;4.80;;;4.40;;
29384;SDS011;16367;48.736;9.218;2022-08-20T08:20:22;4.67;;;4.30;;
29384;SDS011;16367;48.736;9.218;2022-08-20T08:22:24;5.10;;;4.70;;
29384;SDS011;16367;48.736;9.218;2022-08-20T08:24:29;5.17;;;4.77;;
29384;SDS011;16367;48.736;9.218;2022-08-20T08:26:31;5.30;;;4.90;;
29384;SDS011;16367;48.736;9.218;2022-08-20T08:28:34;8.43;;;7.53;;
29384;SDS011;16367;48.736;9.218;2022-08-20T08:30:37;5.17;;;4.67;;
29384;SDS011;16367;48.736;9.218;2022-08-20T08:32:41;5.00;;;4.60;;
29384;SDS011;16367;48.736;9.218;2022-08-20T08:35:02;5.43;;;4.70;;
29384;SDS011;16367;48.736;9.218;2022-08-20T08:37:06;5.20;;;4.30;;
29384;SDS011;16367;48.736;9.218;2022-08-20T08:39:09;4.63;;;4.33;;
29384;SDS011;16367;48.736;9.218;2022-08-20T08:41:14;4.80;;;4.40;;
29384;SDS011;16367;48.736;9.218;2022-08-20T08:43:21;4.83;;;4.43;;
29384;SDS011;16367;48.736;9.218;2022-08-20T08:45:33;4.53;;;4.20;;
29384;SDS011;16367;48.736;9.218;2022-08-20T08:47:46;5.13;;;4.70;;
29384;SDS011;16367;48.736;9.218;2022-08-20T08:49:49;4.60;;;4.20;;
29384;SDS011;16367;48.736;9.218;2022-08-20T08:51:53;5.13;;;4.73;;
29384;SDS011;16367;48.736;9.218;2022-08-20T08:54:00;4.70;;;4.30;;
29384;SDS011;16367;48.736;9.218;2022-08-20T08:56:07;4.83;;;4.43;;
29384;SDS011;16367;48.736;9.218;2022-08-20T08:58:12;4.50;;;4.20;;
29384;SDS011;16367;48.736;9.218;2022-08-20T09:00:18;5.23;;;4.40;;
29384;SDS011;16367;48.736;9.218;2022-08-20T09:02:23;4.80;;;4.40;;
29384;SDS011;16367;48.736;9.218;2022-08-20T09:04:29;3.97;;;3.67;;
29384;SDS011;16367;48.736;9.218;2022-08-20T09:06:34;5.57;;;5.10;;
29384;SDS011;16367;48.736;9.218;2022-08-20T09:08:38;3.53;;;3.23;;
29384;SDS011;16367;48.736;9.218;2022-08-20T09:10:46;5.20;;;4.80;;
29384;SDS011;16367;48.736;9.218;2022-08-20T09:12:49;4.87;;;4.47;;
29384;SDS011;16367;48.736;9.218;2022-08-20T09:14:53;7.00;;;5.57;;
29384;SDS011;16367;48.736;9.218;2022-08-20T09:16:56;5.03;;;4.63;;
29384;SDS011;16367;48.736;9.218;2022-08-20T09:18:59;5.63;;;4.70;;
29384;SDS011;16367;48.736;9.218;2022-08-20T09:21:02;6.00;;;4.80;;
29384;SDS011;16367;48.736;9.218;2022-08-20T09:23:05;5.57;;;5.03;;
29384;SDS011;16367;48.736;9.218;2022-08-20T09:25:08;5.90;;;5.23;;
29384;SDS011;16367;48.736;9.218;2022-08-20T09:27:12;5.17;;;4.77;;
29384;SDS011;16367;48.736;9.218;2022-08-20T09:29:15;5.50;;;5.00;;
29384;SDS011;16367;48.736;9.218;2022-08-20T09:31:19;6.00;;;5.40;;
29384;SDS011;16367;48.736;9.218;2022-08-20T09:33:24;5.70;;;5.30;;
29384;SDS011;16367;48.736;9.218;2022-08-20T09:35:27;5.73;;;5.13;;
29384;SDS011;16367;48.736;9.218;2022-08-20T09:37:30;5.90;;;5.40;;
29384;SDS011;16367;48.736;9.218;2022-08-20T09:39:38;5.80;;;5.30;;
29384;SDS011;16367;48.736;9.218;2022-08-20T09:41:40;6.43;;;5.93;;
29384;SDS011;16367;48.736;9.218;2022-08-20T09:43:43;6.20;;;5.70;;
29384;SDS011;16367;48.736;9.218;2022-08-20T09:45:46;6.00;;;5.50;;
29384;SDS011;16367;48.736;9.218;2022-08-20T09:47:50;6.00;;;5.50;;
29384;SDS011;16367;48.736;9.218;2022-08-20T09:49:57;5.97;;;5.47;;
29384;SDS011;16367;48.736;9.218;2022-08-20T09:52:00;5.53;;;5.03;;
29384;SDS011;16367;48.736;9.218;2022-08-20T09:54:03;5.63;;;5.23;;
29384;SDS011;16367;48.736;9.218;2022-08-20T09:56:06;4.07;;;3.67;;
29384;SDS011;16367;48.736;9.218;2022-08-20T09:58:11;3.40;;;3.10;;
29384;SDS011;16367;48.736;9.218;2022-08-20T10:00:21;3.20;;;3.00;;
29384;SDS011;16367;48.736;9.218;2022-08-20T10:02:23;2.97;;;2.77;;
29384;SDS011;16367;48.736;9.218;2022-08-20T10:04:28;3.13;;;2.90;;
29384;SDS011;16367;48.736;9.218;2022-08-20T10:06:31;2.67;;;2.47;;
29384;SDS011;16367;48.736;9.218;2022-08-20T10:08:38;4.00;;;3.03;;
29384;SDS011;16367;48.736;9.218;2022-08-20T10:10:40;2.90;;;2.60;;
29384;SDS011;16367;48.736;9.218;2022-08-20T10:12:43;3.20;;;3.00;;
29384;SDS011;16367;48.736;9.218;2022-08-20T10:14:46;3.10;;;2.90;;
29384;SDS011;16367;48.736;9.218;2022-08-20T10:16:53;3.30;;;3.10;;
29384;SDS011;16367;48.736;9.218;2022-08-20T10:19:00;3.40;;;3.10;;
29384;SDS011;16367;48.736;9.218;2022-08-20T10:21:07;3.20;;;2.90;;
29384;SDS011;16367;48.736;9.218;2022-08-20T10:23:10;3.23;;;2.80;;
29384;SDS011;16367;48.736;9.218;2022-08-20T10:25:13;2.97;;;2.77;;
29384;SDS011;16367;48.736;9.218;2022-08-20T10:27:16;2.80;;;2.60;;
29384;SDS011;16367;48.736;9.218;2022-08-20T10:29:19;2.50;;;2.30;;
29384;SDS011;16367;48.736;9.218;2022-08-20T10:31:22;2.57;;;2.37;;
29384;SDS011;16367;48.736;9.218;2022-08-20T10:33:25;2.80;;;2.43;;
29384;SDS011;16367;48.736;9.218;2022-08-20T10:35:28;3.57;;;3.10;;
29384;SDS011;16367;48.736;9.218;2022-08-20T10:37:32;4.53;;;4.13;;
29384;SDS011;16367;48.736;9.218;2022-08-20T10:39:35;4.97;;;3.57;;
29384;SDS011;16367;48.736;9.218;2022-08-20T10:41:38;3.47;;;3.27;;
29384;SDS011;16367;48.736;9.218;2022-08-20T10:43:40;2.97;;;2.77;;
29384;SDS011;16367;48.736;9.218;2022-08-20T10:45:43;3.13;;;2.87;;
29384;SDS011;16367;48.736;9.218;2022-08-20T10:47:46;3.00;;;2.80;;
29384;SDS011;16367;48.736;9.218;2022-08-20T10:49:49;2.90;;;2.70;;
29384;SDS011;16367;48.736;9.218;2022-08-20T10:51:53;2.87;;;2.67;;
29384;SDS011;16367;48.736;9.218;2022-08-20T10:53:58;2.70;;;2.50;;
29384;SDS011;16367;48.736;9.218;2022-08-20T10:56:01;1.83;;;1.73;;
29384;SDS011;16367;48.736;9.218;2022-08-20T10:58:05;1.80;;;1.70;;
29384;SDS011;16367;48.736;9.218;2022-08-20T11:00:12;1.70;;;1.40;;
29384;SDS011;16367;48.736;9.218;2022-08-20T11:02:17;1.80;;;1.43;;
29384;SDS011;16367;48.736;9.218;2022-08-20T11:04:20;1.47;;;1.30;;
29384;SDS011;16367;48.736;9.218;2022-08-20T11:06:22;1.70;;;1.43;;
29384;SDS011;16367;48.736;9.218;2022-08-20T11:08:25;1.47;;;1.37;;
29384;SDS011;16367;48.736;9.218;2022-08-20T11:10:38;1.70;;;1.60;;
29384;SDS011;16367;48.736;9.218;2022-08-20T11:12:41;1.77;;;1.63;;
29384;SDS011;16367;48.736;9.218;2022-08-20T11:14:46;2.37;;;1.70;;
29384;SDS011;16367;48.736;9.218;2022-08-20T11:16:50;1.80;;;1.70;;
29384;SDS011;16367;48.736;9.218;2022-08-20T11:18:53;2.20;;;2.00;;
29384;SDS011;16367;48.736;9.218;2022-08-20T11:20:56;3.00;;;1.70;;
29384;SDS011;16367;48.736;9.218;2022-08-20T11:22:58;3.30;;;1.80;;
29384;SDS011;16367;48.736;9.218;2022-08-20T11:25:02;2.70;;;1.93;;
29384;SDS011;16367;48.736;9.218;2022-08-20T11:27:06;2.53;;;2.23;;
29384;SDS011;16367;48.736;9.218;2022-08-20T11:29:09;1.80;;;1.70;;
29384;SDS011;16367;48.736;9.218;2022-08-20T11:31:12;1.80;;;1.70;;
29384;SDS011;16367;48.736;9.218;2022-08-20T11:33:15;2.30;;;2.10;;
29384;SDS011;16367;48.736;9.218;2022-08-20T11:35:21;2.53;;;1.80;;
29384;SDS011;16367;48.736;9.218;2022-08-20T11:37:43;1.70;;;1.60;;
29384;SDS011;16367;48.736;9.218;2022-08-20T11:39:46;1.80;;;1.60;;
29384;SDS011;16367;48.736;9.218;2022-08-20T11:41:49;1.70;;;1.60;;
29384;SDS011;16367;48.736;9.218;2022-08-20T11:43:57;1.93;;;1.60;;
29384;SDS011;16367;48.736;9.218;2022-08-20T11:46:19;1.47;;;1.37;;
29384;SDS011;16367;48.736;9.218;2022-08-20T11:48:28;1.70;;;1.50;;
29384;SDS011;16367;48.736;9.218;2022-08-20T11:50:31;1.90;;;1.60;;
29384;SDS011;16367;48.736;9.218;2022-08-20T11:52:34;1.90;;;1.37;;
29384;SDS011;16367;48.736;9.218;2022-08-20T11:54:37;1.50;;;1.30;;
29384;SDS011;16367;48.736;9.218;2022-08-20T11:56:41;1.50;;;1.40;;
29384;SDS011;16367;48.736;9.218;2022-08-20T11:58:46;1.80;;;1.40;;
29384;SDS011;16367;48.736;9.218;2022-08-20T12:00:50;2.37;;;1.47;;
29384;SDS011;16367;48.736;9.218;2022-08-20T12:02:53;2.60;;;1.90;;
29384;SDS011;16367;48.736;9.218;2022-08-20T12:04:57;1.70;;;1.60;;
29384;SDS011;16367;48.736;9.218;2022-08-20T12:07:06;1.50;;;1.40;;
29384;SDS011;16367;48.736;9.218;2022-08-20T12:09:09;1.70;;;1.60;;
29384;SDS011;16367;48.736;9.218;2022-08-20T12:11:12;1.90;;;1.60;;
29384;SDS011;16367;48.736;9.218;2022-08-20T12:13:15;2.67;;;1.87;;
29384;SDS011;16367;48.736;9.218;2022-08-20T12:15:18;1.60;;;1.50;;
29384;SDS011;16367;48.736;9.218;2022-08-20T12:17:23;2.47;;;1.80;;
29384;SDS011;16367;48.736;9.218;2022-08-20T12:19:27;2.50;;;1.60;;
29384;SDS011;16367;48.736;9.218;2022-08-20T12:21:30;1.80;;;1.70;;
29384;SDS011;16367;48.736;9.218;2022-08-20T12:23:32;1.70;;;1.60;;
29384;SDS011;16367;48.736;9.218;2022-08-20T12:25:35;3.40;;;1.83;;
29384;SDS011;16367;48.736;9.218;2022-08-20T12:27:38;1.70;;;1.60;;
29384;SDS011;16367;48.736;9.218;2022-08-20T12:29:42;2.20;;;2.00;;
29384;SDS011;16367;48.736;9.218;2022-08-20T12:31:46;1.90;;;1.70;;
29384;SDS011;16367;48.736;9.218;2022-08-20T12:33:50;1.83;;;1.63;;